Terminal Aerodrome Forecast
Issued by NWS Binghamton, NY

Home | Current Version | Previous Version | Text Only | Print | Product List | Glossary On
Versions: 1 2 3 4 5 6 7 8 9 10 11 12 13 14 15 16
000
FTUS41 KBGM 271732
TAFBGM
TAF
KBGM 271732Z 2718/2818 33012G20KT P6SM SCT025 OVC040
      TEMPO 2718/2721 OVC025
     FM280000 34010KT P6SM OVC025
     FM280300 34010KT P6SM OVC015
     FM281200 35012KT P6SM BKN035=

USA.gov is the U.S. government's official web portal to all federal, state and local government web resources and services.